This is the latest recevied weather packets stored in our database for station/object IZ1UQG-N2. If no packets are shown the sender has not sent any weather packets the latest 10 day(s).
| Time | Temp. | Humidity | Pressure | Rain* | Wind** | Luminosity | Snow |
|---|---|---|---|---|---|---|---|
| 1777637487 | 17.78° C | 38% | 1025.2 hPa | 0 mm | - | 809 W/m² | - |
| 1777637467 | 17.78° C | 38% | 1025.2 hPa | 0 mm | - | 809 W/m² | - |
| 1777637427 | 17.78° C | 38% | 1025.2 hPa | 0 mm | - | 809 W/m² | - |
| 1777637367 | 17.78° C | 37% | 1025.2 hPa | 0 mm | - | 809 W/m² | - |
| 1777637318 | 17.78° C | 38% | 1025.3 hPa | 0 mm | - | 812 W/m² | - |
| 1777637308 | 17.78° C | 36% | 1025.2 hPa | 0 mm | - | 807 W/m² | - |
| 1777637288 | 17.78° C | 36% | 1025.2 hPa | 0 mm | - | 807 W/m² | - |
| 1777637247 | 18.33° C | 37% | 1025.2 hPa | 0 mm | - | 810 W/m² | - |
| 1777637187 | 18.33° C | 36% | 1025.2 hPa | 0 mm | - | 810 W/m² | - |
| 1777637178 | 17.78° C | 39% | 1025.3 hPa | 0 mm | - | 812 W/m² | - |
| 1777637138 | 17.78° C | 38% | 1025.2 hPa | 0 mm | - | 814 W/m² | - |
| 1777637127 | 18.33° C | 38% | 1025.3 hPa | 0 mm | - | 812 W/m² | - |
| 1777637106 | 18.33° C | 38% | 1025.3 hPa | 0 mm | - | 812 W/m² | - |
| 1777637066 | 17.78° C | 38% | 1025.3 hPa | 0 mm | - | 812 W/m² | - |
| 1777637006 | 17.78° C | 39% | 1025.3 hPa | 0 mm | - | 810 W/m² | - |
| 1777636948 | 17.78° C | 39% | 1025.3 hPa | 0 mm | - | 812 W/m² | - |
| 1777636927 | 17.78° C | 39% | 1025.3 hPa | 0 mm | - | 812 W/m² | - |
| 1777636886 | 17.78° C | 38% | 1025.2 hPa | 0 mm | - | 814 W/m² | - |
| 1777636826 | 17.78° C | 39% | 1025.4 hPa | 0 mm | - | 812 W/m² | - |
| 1777636768 | 17.78° C | 39% | 1025.4 hPa | 0 mm | - | 814 W/m² | - |
| 1777636748 | 17.22° C | 38% | 1025.3 hPa | 0 mm | - | 814 W/m² | - |
| 1777636708 | 17.22° C | 38% | 1025.3 hPa | 0 mm | - | 814 W/m² | - |
| 1777636647 | 17.78° C | 38% | 1025.3 hPa | 0 mm | - | 816 W/m² | - |
| 1777636597 | 17.78° C | 40% | 1025.4 hPa | 0 mm | - | 816 W/m² | - |
| 1777636587 | 17.78° C | 38% | 1025.2 hPa | 0 mm | - | 814 W/m² | - |
* Rain latest hour (hover to see other rain measurements)
** Current wind speed in m/s (hover to see current wind gust speed)